Time;durP1;ratioP1;P1;durP2;ratioP2;P2;SDS_P1;SDS_P2;PMS_P1;PMS_P2;Temp;Humidity;BMP_temperature;BMP_pressure;BME280_temperature;BME280_humidity;BME280_pressure;Samples;Min_cycle;Max_cycle;Signal;HPM_P1;HPM_P2
2022/12/05 00:00:31;;;;;;;91.45;39.92;;;5.60;99.90;;;;;;5098835;28;20276;-78
2022/12/05 00:02:59;;;;;;;80.00;41.83;;;5.60;99.90;;;;;;5101133;28;20238;-78
2022/12/05 00:05:26;;;;;;;81.90;42.90;;;5.60;99.90;;;;;;5102368;28;20223;-78
2022/12/05 00:07:53;;;;;;;88.10;46.58;;;5.60;99.90;;;;;;5099196;28;20230;-79
2022/12/05 00:10:20;;;;;;;79.75;40.17;;;5.50;99.90;;;;;;5067280;28;20315;-75
2022/12/05 00:12:47;;;;;;;77.93;40.20;;;5.60;99.90;;;;;;5091872;28;20565;-79
2022/12/05 00:15:14;;;;;;;83.18;43.50;;;5.60;99.90;;;;;;5093959;28;20277;-78
2022/12/05 00:17:42;;;;;;;82.82;41.38;;;5.70;99.90;;;;;;5089869;28;20216;-79
2022/12/05 00:20:10;;;;;;;87.60;40.92;;;5.70;99.90;;;;;;5075113;28;20224;-79
2022/12/05 00:22:38;;;;;;;82.05;39.63;;;5.60;99.90;;;;;;5072762;28;20219;-76
2022/12/05 00:25:06;;;;;;;72.70;40.00;;;5.60;99.90;;;;;;5072776;28;20228;-76
2022/12/05 00:27:34;;;;;;;79.95;41.75;;;5.60;99.90;;;;;;5072434;28;20684;-78
2022/12/05 00:30:01;;;;;;;74.75;40.65;;;5.60;99.90;;;;;;5072358;28;20697;-76
2022/12/05 00:32:29;;;;;;;82.70;40.35;;;5.70;99.90;;;;;;5072083;28;20220;-76
2022/12/05 00:35:01;;;;;;;75.40;38.72;;;5.60;99.90;;;;;;5072176;28;20239;-79
2022/12/05 00:37:28;;;;;;;84.03;42.33;;;5.70;99.90;;;;;;5072103;28;20223;-76
2022/12/05 00:39:55;;;;;;;76.28;41.35;;;5.70;99.90;;;;;;5073479;28;20228;-76
2022/12/05 00:42:22;;;;;;;72.07;38.90;;;5.70;99.90;;;;;;5074609;28;20402;-79
2022/12/05 00:44:50;;;;;;;77.20;40.40;;;5.80;99.90;;;;;;5077104;28;20220;-79
2022/12/05 00:47:17;;;;;;;75.32;40.33;;;5.80;99.90;;;;;;5076693;28;20247;-79
2022/12/05 00:49:44;;;;;;;62.25;37.90;;;5.80;99.90;;;;;;5076254;28;20285;-76
2022/12/05 00:52:12;;;;;;;73.05;40.67;;;5.80;99.90;;;;;;5076070;28;20231;-76
2022/12/05 00:54:39;;;;;;;76.93;40.92;;;5.80;99.90;;;;;;5076295;28;20245;-79
2022/12/05 00:57:06;;;;;;;73.00;41.45;;;5.80;99.90;;;;;;5077145;28;20684;-79
2022/12/05 00:59:33;;;;;;;86.10;42.97;;;5.90;99.90;;;;;;5075894;28;20255;-79
2022/12/05 01:02:00;;;;;;;73.50;40.08;;;5.80;99.90;;;;;;5076334;28;20228;-76
2022/12/05 01:04:27;;;;;;;81.47;42.72;;;5.80;99.90;;;;;;5076302;28;20604;-79
2022/12/05 01:06:56;;;;;;;70.35;39.97;;;5.90;99.90;;;;;;5076111;28;20219;-79
2022/12/05 01:09:26;;;;;;;74.13;37.60;;;5.80;99.90;;;;;;5076058;28;20224;-76
2022/12/05 01:11:53;;;;;;;72.53;40.22;;;5.90;99.90;;;;;;5076611;28;20232;-78
2022/12/05 01:14:23;;;;;;;73.28;40.78;;;5.90;99.90;;;;;;5075221;28;20250;-79
2022/12/05 01:16:53;;;;;;;77.60;40.63;;;6.00;99.90;;;;;;5076196;28;20216;-76
2022/12/05 01:19:22;;;;;;;81.80;40.55;;;5.90;99.90;;;;;;5075817;28;20228;-80
2022/12/05 01:21:49;;;;;;;70.30;36.95;;;5.90;99.90;;;;;;5075977;28;20303;-76
2022/12/05 01:24:20;;;;;;;78.63;41.47;;;5.90;99.90;;;;;;5076283;28;20216;-79
2022/12/05 01:26:49;;;;;;;74.47;41.65;;;5.90;99.90;;;;;;5075892;28;20633;-75
2022/12/05 01:29:19;;;;;;;84.75;42.38;;;5.80;99.90;;;;;;5075497;28;20224;-75
2022/12/05 01:31:46;;;;;;;73.95;39.80;;;5.80;99.90;;;;;;5076362;28;20232;-76
2022/12/05 01:34:23;;;;;;;71.53;39.65;;;5.80;99.90;;;;;;5076288;28;20248;-78
2022/12/05 01:36:50;;;;;;;82.85;41.60;;;5.80;99.90;;;;;;5075695;28;20293;-79
2022/12/05 01:39:18;;;;;;;72.15;40.40;;;5.70;99.90;;;;;;5076023;28;20228;-79
2022/12/05 01:41:49;;;;;;;78.93;41.45;;;5.80;99.90;;;;;;5092045;28;20709;-79
2022/12/05 01:44:53;;;;;;;82.25;41.28;;;5.70;99.90;;;;;;5095916;28;20215;-76
2022/12/05 01:47:22;;;;;;;71.63;42.30;;;5.70;99.90;;;;;;5095639;28;20230;-76
2022/12/05 01:49:49;;;;;;;80.35;41.25;;;5.70;99.90;;;;;;5095903;28;20304;-79
2022/12/05 01:52:18;;;;;;;72.95;40.30;;;5.70;99.90;;;;;;5094644;28;20223;-76
2022/12/05 01:54:48;;;;;;;81.28;43.08;;;5.70;99.90;;;;;;5095665;28;20280;-78
2022/12/05 01:57:17;;;;;;;84.15;44.22;;;5.70;99.90;;;;;;5096024;28;20254;-79
2022/12/05 01:59:48;;;;;;;84.65;42.75;;;5.70;99.90;;;;;;5096120;28;20223;-76
2022/12/05 02:02:16;;;;;;;77.57;39.03;;;5.80;99.90;;;;;;5095117;28;20231;-76
2022/12/05 02:04:53;;;;;;;72.78;38.30;;;5.80;99.90;;;;;;5096115;28;20250;-79
2022/12/05 02:07:20;;;;;;;78.30;39.92;;;5.70;99.90;;;;;;5095243;28;20231;-76
2022/12/05 02:09:49;;;;;;;77.93;42.05;;;5.80;99.90;;;;;;5095200;28;20227;-75
2022/12/05 02:12:20;;;;;;;80.80;44.90;;;5.80;99.90;;;;;;5094944;28;20223;-76
2022/12/05 02:14:59;;;;;;;73.53;41.25;;;5.80;99.90;;;;;;5095040;28;20349;-76
2022/12/05 02:17:39;;;;;;;79.70;41.92;;;5.70;99.90;;;;;;5095307;28;20621;-79
2022/12/05 02:20:21;;;;;;;74.60;40.80;;;5.70;99.90;;;;;;5095887;28;20243;-78
2022/12/05 02:23:24;;;;;;;74.93;39.80;;;5.60;99.90;;;;;;5083558;28;20227;-76
2022/12/05 02:26:32;;;;;;;68.93;38.30;;;5.60;99.90;;;;;;5074582;28;20642;-76
2022/12/05 02:29:45;;;;;;;78.45;40.20;;;5.60;99.90;;;;;;5077581;28;20261;-78
2022/12/05 02:32:21;;;;;;;76.55;41.13;;;5.60;99.90;;;;;;5096556;28;20215;-79
2022/12/05 02:34:56;;;;;;;79.40;40.63;;;5.60;99.90;;;;;;5096529;28;20753;-79
2022/12/05 02:37:28;;;;;;;70.03;41.22;;;5.60;99.90;;;;;;5095916;28;20223;-79
2022/12/05 02:40:01;;;;;;;79.55;42.20;;;5.60;99.90;;;;;;5095770;28;20578;-76
2022/12/05 02:42:33;;;;;;;77.25;39.72;;;5.60;99.90;;;;;;5094838;28;20231;-76
2022/12/05 02:45:06;;;;;;;83.07;40.67;;;5.50;99.90;;;;;;5094761;28;20696;-76
2022/12/05 02:47:38;;;;;;;72.13;38.17;;;5.50;99.90;;;;;;5095343;28;20611;-75
2022/12/05 02:50:09;;;;;;;70.88;39.88;;;5.50;99.90;;;;;;5093846;28;20223;-75
2022/12/05 02:52:36;;;;;;;67.60;36.78;;;5.50;99.90;;;;;;5094825;28;20304;-76
2022/12/05 02:55:04;;;;;;;77.00;42.15;;;5.60;99.90;;;;;;5094313;28;20242;-79
2022/12/05 02:57:32;;;;;;;69.68;39.25;;;5.60;99.90;;;;;;5095772;28;20219;-78
2022/12/05 02:59:59;;;;;;;65.93;38.08;;;5.60;99.90;;;;;;5094985;28;20238;-75
2022/12/05 03:02:30;;;;;;;71.93;40.90;;;5.60;99.90;;;;;;5096277;28;20219;-78
2022/12/05 03:05:04;;;;;;;67.85;35.97;;;5.60;99.90;;;;;;5096620;28;20219;-78
2022/12/05 03:07:34;;;;;;;70.57;39.03;;;5.60;99.90;;;;;;5097195;28;20700;-78
2022/12/05 03:10:07;;;;;;;64.30;35.33;;;5.70;99.90;;;;;;5096654;28;20314;-75
2022/12/05 03:12:41;;;;;;;70.03;37.40;;;5.70;99.90;;;;;;5096671;28;20277;-75
2022/12/05 03:15:13;;;;;;;62.17;34.75;;;5.70;99.90;;;;;;5095536;28;20305;-78
2022/12/05 03:17:53;;;;;;;70.72;37.45;;;5.80;99.90;;;;;;5095442;28;20752;-78
2022/12/05 03:20:28;;;;;;;71.78;39.00;;;5.80;99.90;;;;;;5098040;28;20231;-78
2022/12/05 03:23:01;;;;;;;64.22;35.08;;;5.80;99.90;;;;;;5097853;28;20341;-75
2022/12/05 03:25:35;;;;;;;64.30;33.90;;;5.70;99.90;;;;;;5102655;28;20250;-75
2022/12/05 03:28:06;;;;;;;67.07;36.97;;;5.60;99.90;;;;;;5102535;28;20246;-75
2022/12/05 03:30:37;;;;;;;59.95;33.60;;;5.60;99.90;;;;;;5096102;28;20250;-75
2022/12/05 03:33:12;;;;;;;58.22;33.00;;;5.50;99.90;;;;;;5096122;28;20219;-75
2022/12/05 03:35:44;;;;;;;56.33;31.15;;;5.50;99.90;;;;;;5102854;28;20257;-78
2022/12/05 03:38:16;;;;;;;57.75;33.70;;;5.50;99.90;;;;;;5100934;28;20264;-78
2022/12/05 03:40:49;;;;;;;54.78;31.40;;;5.50;99.90;;;;;;5094739;28;20235;-78
2022/12/05 03:43:22;;;;;;;56.25;30.67;;;5.60;99.90;;;;;;5095549;28;20230;-78
2022/12/05 03:45:56;;;;;;;54.08;32.13;;;5.60;99.90;;;;;;5103293;28;20228;-75
2022/12/05 03:48:30;;;;;;;53.03;29.52;;;5.60;99.90;;;;;;5094434;28;20215;-76
2022/12/05 03:51:00;;;;;;;51.97;30.58;;;5.60;99.90;;;;;;5094462;28;20222;-75
2022/12/05 03:53:33;;;;;;;55.08;31.23;;;5.60;99.90;;;;;;5099459;28;20250;-75
2022/12/05 03:56:04;;;;;;;57.80;32.00;;;5.60;99.90;;;;;;5100936;28;20230;-78
2022/12/05 03:58:37;;;;;;;51.55;30.48;;;5.70;99.90;;;;;;5100153;28;20223;-76
2022/12/05 04:01:08;;;;;;;53.25;32.00;;;5.70;99.90;;;;;;5095501;28;20227;-78
2022/12/05 04:03:39;;;;;;;53.47;31.23;;;5.70;99.90;;;;;;5096837;28;20239;-75
2022/12/05 04:06:13;;;;;;;48.75;31.80;;;5.70;99.90;;;;;;5096384;28;20226;-78
2022/12/05 04:08:45;;;;;;;48.83;29.88;;;5.80;99.90;;;;;;5097410;28;20241;-78
2022/12/05 04:11:15;;;;;;;51.80;30.88;;;5.80;99.90;;;;;;5099000;28;20227;-78
2022/12/05 04:13:46;;;;;;;51.13;31.63;;;5.80;99.90;;;;;;5099426;28;20287;-79
2022/12/05 04:19:05;;;;;;;48.35;28.73;;;5.80;99.90;;;;;;5096551;28;20226;-76
2022/12/05 04:21:41;;;;;;;49.78;29.90;;;5.80;99.90;;;;;;5095653;28;20306;-78
2022/12/05 04:27:06;;;;;;;51.10;29.48;;;5.80;99.90;;;;;;5097059;28;20358;-78
2022/12/05 04:29:37;;;;;;;49.03;28.60;;;5.80;99.90;;;;;;5096009;28;20223;-78
2022/12/05 04:32:14;;;;;;;45.55;28.65;;;5.80;99.90;;;;;;5096962;28;20310;-75
2022/12/05 04:34:45;;;;;;;46.97;29.05;;;5.80;99.90;;;;;;5093482;28;20219;-78
2022/12/05 04:37:19;;;;;;;49.78;28.75;;;5.70;99.90;;;;;;5096778;28;20238;-78
2022/12/05 04:39:50;;;;;;;47.45;28.88;;;5.70;99.90;;;;;;5096635;28;20254;-75
2022/12/05 04:42:21;;;;;;;46.53;28.67;;;5.70;99.90;;;;;;5094263;28;20263;-75
2022/12/05 04:44:53;;;;;;;48.17;29.50;;;5.70;99.90;;;;;;5093443;28;20215;-76
2022/12/05 04:47:24;;;;;;;48.05;28.42;;;5.70;99.90;;;;;;5094484;28;20230;-78
2022/12/05 04:49:56;;;;;;;51.33;28.92;;;5.70;99.90;;;;;;5095087;28;20292;-75
2022/12/05 04:52:27;;;;;;;46.13;26.73;;;5.70;99.90;;;;;;5093306;28;20673;-75
2022/12/05 04:54:59;;;;;;;48.28;29.80;;;5.60;99.90;;;;;;5095036;28;20230;-78
2022/12/05 04:57:31;;;;;;;44.70;26.77;;;5.60;99.90;;;;;;5095930;28;20219;-75
2022/12/05 04:59:57;;;;;;;45.13;28.30;;;5.70;99.90;;;;;;5093395;28;20298;-75
2022/12/05 05:02:32;;;;;;;41.63;25.20;;;5.80;99.90;;;;;;5093700;28;20308;-75
2022/12/05 05:05:02;;;;;;;44.17;26.80;;;5.80;99.90;;;;;;5093070;28;20219;-75
2022/12/05 05:07:30;;;;;;;46.40;26.65;;;5.80;99.90;;;;;;5094235;28;20227;-75
2022/12/05 05:09:57;;;;;;;38.78;25.95;;;5.80;99.90;;;;;;5093169;28;20678;-76
2022/12/05 05:12:26;;;;;;;45.15;28.27;;;5.80;99.90;;;;;;5094013;28;20679;-76
2022/12/05 05:14:53;;;;;;;40.97;25.75;;;5.80;99.90;;;;;;5093813;28;20234;-79
2022/12/05 05:17:22;;;;;;;43.03;26.38;;;5.90;99.90;;;;;;5098031;28;20674;-78
2022/12/05 05:20:22;;;;;;;40.05;26.30;;;5.80;99.90;;;;;;5097335;28;20227;-78
2022/12/05 05:22:43;;;;;;;45.55;28.52;;;5.90;99.90;;;;;;5096873;28;20280;-78
2022/12/05 05:25:10;;;;;;;40.70;25.15;;;5.90;99.90;;;;;;5098147;28;20306;-79
2022/12/05 05:27:37;;;;;;;32.65;21.48;;;5.90;99.90;;;;;;5105512;28;20223;-77
2022/12/05 05:30:04;;;;;;;40.25;25.13;;;5.90;99.90;;;;;;5101378;28;20245;-74
2022/12/05 05:32:32;;;;;;;36.95;24.80;;;6.00;99.90;;;;;;5101550;28;20231;-73
2022/12/05 05:35:00;;;;;;;34.10;22.30;;;6.00;99.90;;;;;;5101252;28;20237;-74
2022/12/05 05:37:27;;;;;;;33.20;22.35;;;5.90;99.90;;;;;;5101856;28;20228;-75
2022/12/05 05:39:55;;;;;;;31.35;21.52;;;5.90;99.90;;;;;;5099726;28;20227;-74
2022/12/05 05:42:23;;;;;;;35.70;21.52;;;5.90;99.90;;;;;;5099817;28;20347;-75
2022/12/05 05:44:50;;;;;;;30.90;21.67;;;5.90;99.90;;;;;;5099296;28;20238;-74
2022/12/05 05:47:16;;;;;;;31.73;20.38;;;6.00;99.90;;;;;;5100661;28;20280;-75
2022/12/05 05:49:43;;;;;;;33.72;21.48;;;5.90;99.90;;;;;;5098956;28;20223;-75
2022/12/05 05:52:10;;;;;;;28.23;20.38;;;5.80;99.90;;;;;;5098581;28;20220;-75
2022/12/05 05:54:37;;;;;;;28.23;19.65;;;5.80;99.90;;;;;;5099342;28;20247;-75
2022/12/05 05:57:06;;;;;;;30.33;20.30;;;5.90;99.90;;;;;;5096677;28;20235;-75
2022/12/05 05:59:33;;;;;;;26.20;18.23;;;5.90;99.90;;;;;;5096290;28;20306;-75
2022/12/05 06:02:00;;;;;;;26.88;18.23;;;5.90;99.90;;;;;;5095489;28;22828;-75
2022/12/05 06:04:27;;;;;;;25.70;17.90;;;5.90;99.90;;;;;;5095482;28;20228;-75
2022/12/05 06:06:53;;;;;;;25.30;19.33;;;5.90;99.90;;;;;;5095046;28;20268;-75
2022/12/05 06:09:20;;;;;;;25.95;16.52;;;5.90;99.90;;;;;;5095557;28;20229;-74
2022/12/05 06:11:47;;;;;;;23.83;16.25;;;5.90;99.90;;;;;;5094992;28;20242;-74
2022/12/05 06:14:16;;;;;;;25.48;17.00;;;5.80;99.90;;;;;;5095456;28;20306;-75
2022/12/05 06:16:42;;;;;;;24.70;17.05;;;5.80;99.90;;;;;;5094869;28;20247;-75
2022/12/05 06:19:09;;;;;;;20.70;17.63;;;5.90;99.90;;;;;;5095307;28;20300;-74
2022/12/05 06:21:36;;;;;;;20.60;15.10;;;5.90;99.90;;;;;;5095729;28;20527;-75
2022/12/05 06:24:04;;;;;;;22.13;17.60;;;5.90;99.90;;;;;;5095283;28;20362;-75
2022/12/05 06:26:31;;;;;;;24.77;17.00;;;5.90;99.90;;;;;;5096232;28;20330;-76
2022/12/05 06:28:58;;;;;;;24.08;16.80;;;5.90;99.90;;;;;;5095479;28;20611;-75
2022/12/05 06:31:29;;;;;;;18.70;15.18;;;6.00;99.90;;;;;;5095362;28;20227;-75
2022/12/05 06:33:59;;;;;;;24.42;18.88;;;6.00;99.90;;;;;;5094982;28;20223;-75
2022/12/05 06:36:26;;;;;;;25.73;16.58;;;6.00;99.90;;;;;;5095486;28;20281;-75
2022/12/05 06:38:53;;;;;;;22.02;16.17;;;6.00;99.90;;;;;;5093697;28;20568;-76
2022/12/05 06:41:23;;;;;;;18.67;14.18;;;6.10;99.90;;;;;;5094386;28;20223;-75
2022/12/05 06:43:52;;;;;;;23.75;16.35;;;6.10;99.90;;;;;;5093982;28;20228;-76
2022/12/05 06:46:20;;;;;;;22.88;16.58;;;6.10;99.90;;;;;;5094866;28;20227;-75
2022/12/05 06:48:49;;;;;;;25.50;16.35;;;6.10;99.90;;;;;;5094074;28;20870;-75
2022/12/05 06:51:17;;;;;;;20.30;16.05;;;6.10;99.90;;;;;;5094425;28;20292;-75
2022/12/05 06:53:44;;;;;;;22.63;16.38;;;6.00;99.90;;;;;;5094708;28;20308;-76
2022/12/05 06:56:13;;;;;;;26.70;18.60;;;6.00;99.90;;;;;;5094397;28;20219;-76
2022/12/05 06:58:40;;;;;;;26.92;16.80;;;6.00;99.90;;;;;;5094230;28;20227;-76
2022/12/05 07:04:02;;;;;;;21.25;15.45;;;6.10;99.90;;;;;;5094189;28;20254;-76
2022/12/05 07:06:31;;;;;;;22.92;15.15;;;6.10;99.90;;;;;;5094118;28;20231;-76
2022/12/05 07:08:58;;;;;;;20.38;14.90;;;6.10;99.90;;;;;;5093437;28;20312;-76
2022/12/05 07:11:26;;;;;;;23.08;16.42;;;6.10;99.90;;;;;;5094064;28;20261;-76
2022/12/05 07:13:53;;;;;;;23.50;16.95;;;6.10;99.90;;;;;;5093458;28;20571;-75
2022/12/05 07:16:20;;;;;;;20.88;17.77;;;6.10;99.90;;;;;;5094048;28;20528;-75
2022/12/05 07:18:47;;;;;;;23.30;15.63;;;6.10;99.90;;;;;;5093796;28;20261;-75
2022/12/05 07:21:16;;;;;;;20.60;16.05;;;6.10;99.90;;;;;;5093336;28;20306;-77
2022/12/05 07:23:45;;;;;;;19.85;16.25;;;6.00;99.90;;;;;;5094127;28;20308;-78
2022/12/05 07:26:14;;;;;;;22.83;16.25;;;6.00;99.90;;;;;;5093814;28;20238;-75
2022/12/05 07:28:41;;;;;;;23.55;16.98;;;6.00;99.90;;;;;;5093911;28;20340;-75
2022/12/05 07:31:10;;;;;;;22.73;17.45;;;6.10;99.90;;;;;;5093042;28;20223;-75
2022/12/05 07:33:37;;;;;;;29.65;16.20;;;6.10;99.90;;;;;;5093792;28;20680;-75
2022/12/05 07:36:06;;;;;;;24.92;16.67;;;6.10;99.90;;;;;;5093272;28;20219;-76
2022/12/05 07:38:35;;;;;;;19.88;15.90;;;6.10;99.90;;;;;;5093524;28;20220;-75
2022/12/05 07:41:11;;;;;;;21.52;16.85;;;6.10;99.90;;;;;;5093089;28;20226;-75
2022/12/05 07:43:41;;;;;;;22.77;16.67;;;6.10;99.90;;;;;;5093460;28;20696;-75
2022/12/05 07:46:11;;;;;;;19.08;16.10;;;6.10;99.90;;;;;;5093067;28;20672;-76
2022/12/05 07:48:38;;;;;;;20.67;15.15;;;6.10;99.90;;;;;;5093641;28;20250;-76
2022/12/05 07:51:07;;;;;;;23.35;16.27;;;6.10;99.90;;;;;;5092215;28;20326;-75
2022/12/05 07:53:36;;;;;;;21.05;15.98;;;6.10;99.90;;;;;;5093576;28;20261;-75
2022/12/05 07:56:08;;;;;;;20.67;16.10;;;6.20;99.90;;;;;;5092734;28;20247;-75
2022/12/05 07:58:36;;;;;;;22.02;19.55;;;6.20;99.90;;;;;;5093179;28;20310;-76
2022/12/05 08:01:07;;;;;;;37.65;30.70;;;6.20;99.90;;;;;;5092503;28;20698;-75
2022/12/05 08:03:36;;;;;;;24.38;16.58;;;6.20;99.90;;;;;;5092724;28;20669;-76
2022/12/05 08:06:05;;;;;;;26.75;21.70;;;6.10;99.90;;;;;;5082456;28;20292;-76
2022/12/05 08:08:32;;;;;;;25.95;21.60;;;6.20;99.90;;;;;;5092673;28;20242;-76
2022/12/05 08:11:05;;;;;;;25.77;18.42;;;6.10;99.90;;;;;;5092369;28;20633;-76
2022/12/05 08:13:32;;;;;;;23.63;17.58;;;6.10;99.90;;;;;;5093151;28;20306;-75
2022/12/05 08:16:02;;;;;;;25.95;23.15;;;6.20;99.90;;;;;;5092641;28;20220;-76
2022/12/05 08:18:29;;;;;;;19.05;16.67;;;6.20;99.90;;;;;;5092286;28;20306;-76
2022/12/05 08:21:00;;;;;;;25.42;20.17;;;6.20;99.90;;;;;;5092824;28;20310;-76
2022/12/05 08:23:29;;;;;;;23.63;17.15;;;6.10;99.90;;;;;;5092175;28;20621;-75
2022/12/05 08:25:56;;;;;;;71.97;47.10;;;6.10;99.90;;;;;;5093122;28;20231;-77
2022/12/05 08:28:24;;;;;;;70.63;54.95;;;6.10;99.90;;;;;;5093397;28;20330;-76
2022/12/05 08:30:51;;;;;;;32.75;25.60;;;6.00;99.90;;;;;;5092774;28;20284;-75
2022/12/05 08:33:18;;;;;;;21.20;16.27;;;6.10;99.90;;;;;;5092332;28;20254;-76
2022/12/05 08:35:48;;;;;;;23.65;17.08;;;6.00;99.90;;;;;;5093054;28;20227;-76
2022/12/05 08:38:20;;;;;;;22.55;16.40;;;6.10;99.90;;;;;;5091698;28;20309;-76
2022/12/05 08:40:47;;;;;;;21.30;16.60;;;6.00;99.90;;;;;;5093790;28;20302;-78
2022/12/05 08:43:14;;;;;;;24.42;18.65;;;6.00;99.90;;;;;;5091625;28;20276;-75
2022/12/05 08:45:49;;;;;;;21.88;16.80;;;6.00;99.90;;;;;;5090994;28;20696;-75
2022/12/05 08:48:16;;;;;;;23.65;16.25;;;6.00;99.90;;;;;;5092200;28;20279;-76
2022/12/05 08:50:43;;;;;;;20.17;16.17;;;6.00;99.90;;;;;;5092822;28;20227;-76
2022/12/05 08:53:10;;;;;;;29.27;23.13;;;6.00;99.90;;;;;;5091935;28;20235;-75
2022/12/05 08:55:38;;;;;;;25.98;21.17;;;6.00;99.90;;;;;;5092545;28;20563;-76
2022/12/05 08:58:05;;;;;;;24.10;18.48;;;5.90;99.90;;;;;;5092489;28;20223;-74
2022/12/05 09:00:32;;;;;;;22.58;17.75;;;5.90;99.90;;;;;;5092291;28;20298;-75
2022/12/05 09:03:01;;;;;;;23.75;18.30;;;5.90;99.90;;;;;;5093877;28;20269;-76
2022/12/05 09:05:28;;;;;;;26.52;18.42;;;5.90;99.90;;;;;;5095023;28;20631;-76
2022/12/05 09:07:55;;;;;;;22.35;16.48;;;5.90;99.90;;;;;;5096330;28;20298;-76
2022/12/05 09:10:22;;;;;;;23.98;17.27;;;5.90;99.90;;;;;;5095883;28;20310;-76
2022/12/05 09:12:50;;;;;;;21.95;14.70;;;5.90;99.90;;;;;;5097406;28;20280;-76
2022/12/05 09:15:18;;;;;;;22.23;16.80;;;5.90;99.90;;;;;;5096670;28;20603;-76
2022/12/05 09:17:45;;;;;;;22.35;17.33;;;6.00;99.90;;;;;;5096630;28;20535;-75
2022/12/05 09:20:13;;;;;;;19.83;16.58;;;6.00;99.90;;;;;;5096270;28;20223;-75
2022/12/05 09:22:41;;;;;;;21.90;16.85;;;6.10;99.90;;;;;;5097113;28;20238;-75
2022/12/05 09:25:08;;;;;;;20.63;14.70;;;6.10;99.90;;;;;;5097008;28;20615;-77
2022/12/05 09:27:36;;;;;;;20.05;16.58;;;6.10;99.90;;;;;;5097289;28;21309;-78
2022/12/05 09:30:03;;;;;;;20.52;15.18;;;6.00;99.90;;;;;;5096996;28;20297;-78
2022/12/05 09:32:29;;;;;;;20.55;14.75;;;6.10;99.90;;;;;;5097059;28;20242;-78
2022/12/05 09:34:56;;;;;;;22.75;15.90;;;6.10;99.90;;;;;;5097211;28;20568;-78
2022/12/05 09:37:25;;;;;;;26.42;15.65;;;6.10;99.90;;;;;;5096693;28;20242;-78
2022/12/05 09:39:52;;;;;;;24.13;15.68;;;6.10;99.90;;;;;;5096898;28;20231;-79
2022/12/05 09:42:35;;;;;;;17.20;13.63;;;6.10;99.90;;;;;;5096415;28;20559;-78
2022/12/05 09:45:25;;;;;;;20.05;15.70;;;6.20;99.90;;;;;;5096745;28;20663;-78
2022/12/05 09:48:00;;;;;;;20.65;15.98;;;6.30;99.90;;;;;;5096872;28;20227;-78
2022/12/05 09:50:29;;;;;;;20.70;17.33;;;6.30;99.90;;;;;;5096394;28;20322;-78
2022/12/05 09:53:05;;;;;;;19.52;16.48;;;6.30;99.90;;;;;;5096816;28;20317;-78
2022/12/05 09:55:42;;;;;;;24.10;17.38;;;6.40;99.90;;;;;;5097184;28;20714;-79
2022/12/05 09:58:36;;;;;;;18.33;15.50;;;6.40;99.90;;;;;;5096783;28;20254;-78
2022/12/05 10:01:11;;;;;;;21.00;16.58;;;6.40;99.90;;;;;;5091804;28;20227;-79
2022/12/05 10:03:43;;;;;;;20.13;15.73;;;6.30;99.90;;;;;;5096734;28;20229;-77
2022/12/05 10:06:17;;;;;;;17.90;15.88;;;6.30;99.90;;;;;;5096459;28;20251;-77
2022/12/05 10:09:10;;;;;;;19.58;15.35;;;6.30;99.90;;;;;;5095801;28;20328;-77
2022/12/05 10:12:08;;;;;;;23.58;16.95;;;6.30;99.90;;;;;;5095625;28;20216;-79
2022/12/05 10:14:46;;;;;;;24.00;18.92;;;6.30;99.90;;;;;;5090048;28;20230;-78
2022/12/05 10:17:26;;;;;;;21.65;16.50;;;6.40;99.90;;;;;;5095532;28;20247;-78
2022/12/05 10:19:58;;;;;;;21.58;16.15;;;6.40;99.90;;;;;;5096355;28;20418;-78
2022/12/05 10:22:34;;;;;;;20.73;16.38;;;6.50;99.90;;;;;;5095406;28;20563;-78
2022/12/05 10:25:07;;;;;;;19.77;15.57;;;6.40;99.90;;;;;;5095769;28;20233;-79
2022/12/05 10:27:38;;;;;;;21.27;17.40;;;6.40;99.90;;;;;;5094536;28;20241;-76
2022/12/05 10:30:06;;;;;;;20.52;15.23;;;6.40;99.90;;;;;;5096456;28;20223;-75
2022/12/05 10:32:37;;;;;;;21.88;17.08;;;6.50;99.90;;;;;;5096305;28;20215;-76
2022/12/05 10:35:16;;;;;;;25.00;17.63;;;6.50;99.90;;;;;;5099701;28;20219;-78
2022/12/05 10:37:47;;;;;;;22.25;16.60;;;6.50;99.90;;;;;;5097591;28;20294;-78
2022/12/05 10:40:18;;;;;;;23.05;17.30;;;6.50;99.90;;;;;;5098609;28;20235;-75
2022/12/05 10:42:49;;;;;;;32.65;18.70;;;6.50;99.90;;;;;;5102472;28;20219;-77
2022/12/05 10:45:20;;;;;;;23.63;16.73;;;6.50;99.90;;;;;;5103105;28;20242;-74
2022/12/05 10:47:48;;;;;;;22.80;17.55;;;6.50;99.90;;;;;;5106386;28;20221;-78
2022/12/05 10:50:25;;;;;;;23.50;17.42;;;6.50;99.90;;;;;;5105122;28;20285;-77
2022/12/05 10:52:53;;;;;;;19.27;16.17;;;6.50;99.90;;;;;;5104105;28;20218;-77
2022/12/05 10:55:21;;;;;;;20.65;16.98;;;6.50;99.90;;;;;;5107083;28;20276;-77
2022/12/05 10:57:52;;;;;;;18.50;15.27;;;6.60;99.90;;;;;;5102139;28;20246;-75
2022/12/05 11:00:25;;;;;;;26.30;17.70;;;6.60;99.90;;;;;;5104259;28;20231;-78
2022/12/05 11:02:52;;;;;;;20.95;17.38;;;6.60;99.90;;;;;;5103429;28;20220;-75
2022/12/05 11:05:29;;;;;;;23.15;16.60;;;6.60;99.90;;;;;;5102830;28;20314;-78
2022/12/05 11:07:57;;;;;;;20.23;16.05;;;6.60;99.90;;;;;;5104349;28;20241;-75
2022/12/05 11:10:33;;;;;;;24.77;19.00;;;6.60;99.90;;;;;;5094197;28;20230;-75
2022/12/05 11:13:01;;;;;;;21.15;16.63;;;6.70;99.90;;;;;;5093594;28;20223;-75
2022/12/05 11:15:30;;;;;;;20.67;14.77;;;6.70;99.90;;;;;;5094057;28;20306;-78
2022/12/05 11:18:26;;;;;;;24.30;17.73;;;6.70;99.90;;;;;;5093862;28;20238;-76
2022/12/05 11:20:59;;;;;;;20.85;14.50;;;6.70;99.90;;;;;;5092788;28;20227;-76
2022/12/05 11:23:35;;;;;;;18.23;15.07;;;6.70;99.90;;;;;;5093287;28;20227;-78
2022/12/05 11:26:19;;;;;;;18.83;14.68;;;6.70;99.90;;;;;;5092557;28;20227;-78
2022/12/05 11:28:52;;;;;;;17.65;15.65;;;6.80;99.90;;;;;;5092567;28;20227;-75
2022/12/05 11:31:26;;;;;;;25.80;17.90;;;6.80;99.90;;;;;;5093582;28;20242;-75
2022/12/05 11:34:13;;;;;;;19.90;16.40;;;6.80;99.90;;;;;;5092945;28;20231;-75
2022/12/05 11:36:43;;;;;;;22.23;16.92;;;6.80;99.90;;;;;;5092739;28;20246;-77
2022/12/05 11:39:13;;;;;;;20.75;15.07;;;6.70;99.90;;;;;;5091984;28;20255;-78
2022/12/05 11:41:54;;;;;;;22.70;17.10;;;6.70;99.90;;;;;;5092749;28;20223;-75
2022/12/05 11:44:42;;;;;;;24.40;16.27;;;6.70;99.90;;;;;;5091199;28;20306;-75
2022/12/05 11:47:19;;;;;;;20.88;16.23;;;6.70;99.90;;;;;;5105834;28;20280;-77
2022/12/05 11:50:08;;;;;;;19.80;15.85;;;6.70;99.90;;;;;;5119455;27;20654;-78
2022/12/05 11:52:51;;;;;;;22.98;16.55;;;6.70;99.90;;;;;;5113563;27;20614;-78
2022/12/05 11:55:24;;;;;;;19.67;16.60;;;6.70;99.90;;;;;;5112095;28;20246;-78
2022/12/05 11:58:13;;;;;;;23.63;16.85;;;6.70;99.90;;;;;;5100649;28;20229;-78
2022/12/05 12:00:52;;;;;;;21.95;15.95;;;6.70;99.90;;;;;;5111279;27;20261;-77
2022/12/05 12:03:50;;;;;;;25.40;19.77;;;6.70;99.90;;;;;;5120107;27;20324;-78
2022/12/05 12:06:29;;;;;;;22.35;17.27;;;6.50;99.90;;;;;;5102648;28;20561;-78
2022/12/05 12:09:21;;;;;;;21.50;17.92;;;6.60;99.90;;;;;;5100419;28;20222;-78
2022/12/05 12:11:54;;;;;;;21.13;16.10;;;6.60;99.90;;;;;;5104334;28;20230;-78
2022/12/05 12:14:31;;;;;;;23.77;17.65;;;6.60;99.90;;;;;;5103212;28;20222;-76
2022/12/05 12:17:08;;;;;;;24.55;17.65;;;6.60;99.90;;;;;;5099695;28;20222;-78
2022/12/05 12:20:02;;;;;;;26.05;19.35;;;6.60;99.90;;;;;;5107573;27;20292;-79
2022/12/05 12:22:43;;;;;;;24.88;17.23;;;6.60;99.90;;;;;;5101585;28;20219;-79
2022/12/05 12:25:27;;;;;;;22.58;16.73;;;6.70;99.90;;;;;;5099976;28;20313;-79
2022/12/05 12:28:07;;;;;;;23.27;16.67;;;6.70;99.90;;;;;;5103081;28;20302;-78
2022/12/05 12:30:56;;;;;;;25.25;17.05;;;6.70;99.90;;;;;;5100529;28;20219;-78
2022/12/05 12:33:30;;;;;;;26.67;18.80;;;6.70;99.90;;;;;;5099361;28;20564;-75
2022/12/05 12:36:09;;;;;;;21.67;19.33;;;6.70;99.90;;;;;;5102982;28;20214;-79
2022/12/05 12:38:59;;;;;;;24.30;18.60;;;6.80;99.90;;;;;;5092741;28;20306;-78
2022/12/05 12:41:46;;;;;;;27.35;19.83;;;6.80;99.90;;;;;;5104079;28;20242;-77
2022/12/05 12:44:46;;;;;;;26.08;18.67;;;6.80;99.90;;;;;;5111036;28;20221;-78
2022/12/05 12:47:23;;;;;;;30.42;20.10;;;6.70;99.90;;;;;;5099960;28;20222;-75
2022/12/05 12:50:03;;;;;;;29.00;21.23;;;6.70;99.90;;;;;;5107029;28;20225;-78
2022/12/05 12:52:44;;;;;;;26.67;19.77;;;6.70;99.90;;;;;;5111851;28;20301;-76
2022/12/05 12:55:22;;;;;;;24.95;19.55;;;6.70;99.90;;;;;;5108481;28;20211;-78
2022/12/05 12:58:07;;;;;;;23.48;19.08;;;6.70;99.90;;;;;;5110600;28;20215;-75
2022/12/05 13:00:47;;;;;;;27.27;20.38;;;6.80;99.90;;;;;;5107782;28;20278;-76
2022/12/05 13:03:21;;;;;;;29.48;19.10;;;6.80;99.90;;;;;;5107205;28;20223;-75
2022/12/05 13:05:55;;;;;;;31.45;19.73;;;6.80;99.90;;;;;;5101812;28;20285;-76
2022/12/05 13:08:28;;;;;;;32.63;20.35;;;6.80;99.90;;;;;;5092130;28;20234;-76